sensor_id;sensor_type;location;lat;lon;timestamp;pressure;altitude;pressure_sealevel;temperature;humidity
10261;BME280;5175;42.606;23.388;2022-07-29T00:01:08;93971.44;;;17.94;53.29
10261;BME280;5175;42.606;23.388;2022-07-29T00:03:35;93973.84;;;17.87;53.63
10261;BME280;5175;42.606;23.388;2022-07-29T00:06:02;93963.97;;;17.82;51.97
10261;BME280;5175;42.606;23.388;2022-07-29T00:08:29;93964.94;;;17.78;52.01
10261;BME280;5175;42.606;23.388;2022-07-29T00:10:55;93970.00;;;17.88;51.88
10261;BME280;5175;42.606;23.388;2022-07-29T00:13:22;93963.50;;;17.63;47.66
10261;BME280;5175;42.606;23.388;2022-07-29T00:15:49;93970.00;;;17.62;46.42
10261;BME280;5175;42.606;23.388;2022-07-29T00:18:17;93973.19;;;17.56;45.57
10261;BME280;5175;42.606;23.388;2022-07-29T00:20:44;93975.88;;;17.64;48.57
10261;BME280;5175;42.606;23.388;2022-07-29T00:23:10;93980.66;;;17.59;50.53
10261;BME280;5175;42.606;23.388;2022-07-29T00:25:37;93974.78;;;17.65;51.53
10261;BME280;5175;42.606;23.388;2022-07-29T00:28:04;93988.75;;;17.59;50.78
10261;BME280;5175;42.606;23.388;2022-07-29T00:30:31;93978.28;;;17.66;50.43
10261;BME280;5175;42.606;23.388;2022-07-29T00:32:58;93980.16;;;17.57;50.07
10261;BME280;5175;42.606;23.388;2022-07-29T00:35:26;93969.06;;;17.67;50.19
10261;BME280;5175;42.606;23.388;2022-07-29T00:38:10;93964.78;;;17.74;50.95
10261;BME280;5175;42.606;23.388;2022-07-29T00:40:37;93962.25;;;17.69;49.50
10261;BME280;5175;42.606;23.388;2022-07-29T00:43:03;93964.94;;;17.61;48.92
10261;BME280;5175;42.606;23.388;2022-07-29T00:45:30;93964.91;;;17.43;45.88
10261;BME280;5175;42.606;23.388;2022-07-29T00:47:57;93970.78;;;17.54;45.46
10261;BME280;5175;42.606;23.388;2022-07-29T00:50:25;93969.06;;;17.75;47.52
10261;BME280;5175;42.606;23.388;2022-07-29T00:52:53;93966.84;;;17.86;49.58
10261;BME280;5175;42.606;23.388;2022-07-29T00:55:20;93973.34;;;17.93;51.21
10261;BME280;5175;42.606;23.388;2022-07-29T00:57:47;93964.94;;;17.95;50.14
10261;BME280;5175;42.606;23.388;2022-07-29T01:00:16;93980.78;;;18.22;55.96
10261;BME280;5175;42.606;23.388;2022-07-29T01:02:44;93978.25;;;18.08;55.50
10261;BME280;5175;42.606;23.388;2022-07-29T01:05:14;93973.81;;;17.95;53.22
10261;BME280;5175;42.606;23.388;2022-07-29T01:07:42;93961.91;;;17.88;51.92
10261;BME280;5175;42.606;23.388;2022-07-29T01:10:10;93963.19;;;17.65;48.98
10261;BME280;5175;42.606;23.388;2022-07-29T01:12:39;93960.81;;;17.63;47.95
10261;BME280;5175;42.606;23.388;2022-07-29T01:15:08;93958.69;;;17.51;47.65
10261;BME280;5175;42.606;23.388;2022-07-29T01:17:41;93960.16;;;17.58;48.56
10261;BME280;5175;42.606;23.388;2022-07-29T01:20:13;93959.69;;;17.73;49.91
10261;BME280;5175;42.606;23.388;2022-07-29T01:22:56;93957.63;;;17.78;50.28
10261;BME280;5175;42.606;23.388;2022-07-29T01:31:32;93956.84;;;17.95;53.16
10261;BME280;5175;42.606;23.388;2022-07-29T01:34:03;93954.28;;;17.98;52.35
10261;BME280;5175;42.606;23.388;2022-07-29T01:36:34;93964.09;;;18.11;51.06
10261;BME280;5175;42.606;23.388;2022-07-29T01:39:06;93961.88;;;18.13;53.89
10261;BME280;5175;42.606;23.388;2022-07-29T01:41:37;93959.16;;;18.13;51.34
10261;BME280;5175;42.606;23.388;2022-07-29T01:44:13;93960.94;;;18.09;54.53
10261;BME280;5175;42.606;23.388;2022-07-29T01:46:44;93951.53;;;18.15;54.73
10261;BME280;5175;42.606;23.388;2022-07-29T01:49:16;93950.59;;;18.20;52.22
10261;BME280;5175;42.606;23.388;2022-07-29T01:51:48;93955.72;;;18.04;52.35
10261;BME280;5175;42.606;23.388;2022-07-29T01:54:19;93954.78;;;17.83;50.98
10261;BME280;5175;42.606;23.388;2022-07-29T01:56:49;93950.59;;;17.51;46.47
10261;BME280;5175;42.606;23.388;2022-07-29T01:59:20;93943.44;;;17.21;43.86
10261;BME280;5175;42.606;23.388;2022-07-29T02:01:50;93947.28;;;17.37;45.63
10261;BME280;5175;42.606;23.388;2022-07-29T02:04:18;93944.44;;;17.42;48.11
10261;BME280;5175;42.606;23.388;2022-07-29T02:06:47;93937.44;;;17.24;44.62
10261;BME280;5175;42.606;23.388;2022-07-29T02:09:15;93909.31;;;17.08;44.95
10261;BME280;5175;42.606;23.388;2022-07-29T02:11:47;93926.81;;;17.28;46.06
10261;BME280;5175;42.606;23.388;2022-07-29T02:14:15;93926.63;;;17.41;44.72
10261;BME280;5175;42.606;23.388;2022-07-29T02:16:47;93932.38;;;17.48;47.48
10261;BME280;5175;42.606;23.388;2022-07-29T02:19:17;93933.81;;;17.46;45.90
10261;BME280;5175;42.606;23.388;2022-07-29T02:21:46;93925.56;;;17.51;45.76
10261;BME280;5175;42.606;23.388;2022-07-29T02:24:14;93928.91;;;17.57;45.16
10261;BME280;5175;42.606;23.388;2022-07-29T02:26:43;93928.09;;;17.65;49.29
10261;BME280;5175;42.606;23.388;2022-07-29T02:29:11;93929.06;;;17.60;48.58
10261;BME280;5175;42.606;23.388;2022-07-29T02:31:39;93934.28;;;17.65;50.87
10261;BME280;5175;42.606;23.388;2022-07-29T02:34:10;93929.53;;;17.71;50.04
10261;BME280;5175;42.606;23.388;2022-07-29T02:36:38;93921.59;;;17.83;55.00
10261;BME280;5175;42.606;23.388;2022-07-29T02:39:07;93927.44;;;17.85;56.01
10261;BME280;5175;42.606;23.388;2022-07-29T02:41:38;93923.47;;;17.82;56.38
10261;BME280;5175;42.606;23.388;2022-07-29T02:44:10;93929.22;;;17.81;56.38
10261;BME280;5175;42.606;23.388;2022-07-29T02:46:41;93920.66;;;17.70;54.88
10261;BME280;5175;42.606;23.388;2022-07-29T02:49:16;93931.13;;;17.72;53.53
10261;BME280;5175;42.606;23.388;2022-07-29T02:51:47;93919.22;;;17.73;49.89
10261;BME280;5175;42.606;23.388;2022-07-29T02:54:22;93912.06;;;17.25;46.67
10261;BME280;5175;42.606;23.388;2022-07-29T02:56:51;93908.53;;;16.99;42.49
10261;BME280;5175;42.606;23.388;2022-07-29T02:59:25;93906.28;;;16.84;40.90
10261;BME280;5175;42.606;23.388;2022-07-29T03:01:55;93914.16;;;16.72;40.33
10261;BME280;5175;42.606;23.388;2022-07-29T03:04:26;93910.03;;;16.66;38.38
10261;BME280;5175;42.606;23.388;2022-07-29T03:06:55;93912.66;;;17.05;42.21
10261;BME280;5175;42.606;23.388;2022-07-29T03:09:25;93905.53;;;17.09;44.48
10261;BME280;5175;42.606;23.388;2022-07-29T03:11:53;93912.03;;;17.08;45.01
10261;BME280;5175;42.606;23.388;2022-07-29T03:14:21;93911.22;;;17.08;44.38
10261;BME280;5175;42.606;23.388;2022-07-29T03:16:49;93911.09;;;17.38;47.63
10261;BME280;5175;42.606;23.388;2022-07-29T03:19:18;93915.53;;;17.34;48.08
10261;BME280;5175;42.606;23.388;2022-07-29T03:21:46;93918.88;;;17.23;46.98
10261;BME280;5175;42.606;23.388;2022-07-29T03:24:29;93913.47;;;17.14;45.34
10261;BME280;5175;42.606;23.388;2022-07-29T03:26:57;93912.50;;;17.10;44.57
10261;BME280;5175;42.606;23.388;2022-07-29T03:29:24;93913.13;;;16.99;43.07
10261;BME280;5175;42.606;23.388;2022-07-29T03:31:51;93921.69;;;17.01;42.72
10261;BME280;5175;42.606;23.388;2022-07-29T03:34:18;93913.59;;;16.92;43.00
10261;BME280;5175;42.606;23.388;2022-07-29T03:36:46;93916.91;;;16.89;42.13
10261;BME280;5175;42.606;23.388;2022-07-29T03:39:16;93911.75;;;16.62;38.70
10261;BME280;5175;42.606;23.388;2022-07-29T03:41:45;93914.59;;;16.57;38.71
10261;BME280;5175;42.606;23.388;2022-07-29T03:44:13;93905.22;;;16.54;38.92
10261;BME280;5175;42.606;23.388;2022-07-29T03:46:42;93917.31;;;16.65;39.87
10261;BME280;5175;42.606;23.388;2022-07-29T03:49:11;93916.84;;;16.63;40.11
10261;BME280;5175;42.606;23.388;2022-07-29T03:51:38;93916.56;;;16.73;40.99
10261;BME280;5175;42.606;23.388;2022-07-29T03:54:07;93920.56;;;16.84;42.17
10261;BME280;5175;42.606;23.388;2022-07-29T03:56:37;93923.59;;;16.92;42.16
10261;BME280;5175;42.606;23.388;2022-07-29T03:59:04;93927.53;;;16.85;41.21
10261;BME280;5175;42.606;23.388;2022-07-29T04:01:33;93927.16;;;16.70;39.71
10261;BME280;5175;42.606;23.388;2022-07-29T04:04:01;93930.53;;;16.45;37.78
10261;BME280;5175;42.606;23.388;2022-07-29T04:06:28;93934.56;;;16.56;37.34
10261;BME280;5175;42.606;23.388;2022-07-29T04:08:55;93904.22;;;16.42;37.34
10261;BME280;5175;42.606;23.388;2022-07-29T04:11:23;93929.28;;;16.51;37.80
10261;BME280;5175;42.606;23.388;2022-07-29T04:13:50;93917.00;;;16.36;37.29
10261;BME280;5175;42.606;23.388;2022-07-29T04:16:16;93931.00;;;16.47;37.46
10261;BME280;5175;42.606;23.388;2022-07-29T04:18:43;93936.75;;;16.54;37.67
10261;BME280;5175;42.606;23.388;2022-07-29T04:21:10;93935.53;;;16.60;37.91
10261;BME280;5175;42.606;23.388;2022-07-29T04:23:36;93924.16;;;16.71;38.23
10261;BME280;5175;42.606;23.388;2022-07-29T04:26:03;93925.94;;;16.84;39.17
10261;BME280;5175;42.606;23.388;2022-07-29T04:28:31;93928.97;;;17.00;40.26
10261;BME280;5175;42.606;23.388;2022-07-29T04:30:58;93934.41;;;17.17;42.54
10261;BME280;5175;42.606;23.388;2022-07-29T04:33:25;93924.88;;;17.28;45.18
10261;BME280;5175;42.606;23.388;2022-07-29T04:35:52;93939.53;;;17.53;46.33
10261;BME280;5175;42.606;23.388;2022-07-29T04:38:19;93920.03;;;17.56;46.94
10261;BME280;5175;42.606;23.388;2022-07-29T04:40:45;93941.09;;;17.80;48.15
10261;BME280;5175;42.606;23.388;2022-07-29T04:43:12;93933.00;;;17.80;48.92
10261;BME280;5175;42.606;23.388;2022-07-29T04:45:41;93935.88;;;17.58;47.00
10261;BME280;5175;42.606;23.388;2022-07-29T04:48:08;93917.81;;;17.58;46.28
10261;BME280;5175;42.606;23.388;2022-07-29T04:50:37;93933.00;;;17.88;47.82
10261;BME280;5175;42.606;23.388;2022-07-29T04:53:04;93933.31;;;18.04;48.45
10261;BME280;5175;42.606;23.388;2022-07-29T04:55:32;93948.41;;;18.05;48.94
10261;BME280;5175;42.606;23.388;2022-07-29T04:57:59;93942.50;;;18.03;47.67
10261;BME280;5175;42.606;23.388;2022-07-29T05:00:26;93954.91;;;17.95;47.26
10261;BME280;5175;42.606;23.388;2022-07-29T05:02:54;93942.66;;;18.06;47.71
10261;BME280;5175;42.606;23.388;2022-07-29T05:05:21;93956.00;;;18.11;47.32
10261;BME280;5175;42.606;23.388;2022-07-29T05:07:47;93934.22;;;18.17;48.16
10261;BME280;5175;42.606;23.388;2022-07-29T05:10:14;93952.31;;;18.33;49.26
10261;BME280;5175;42.606;23.388;2022-07-29T05:12:41;93953.56;;;18.36;48.81
10261;BME280;5175;42.606;23.388;2022-07-29T05:15:09;93957.22;;;18.40;48.85
10261;BME280;5175;42.606;23.388;2022-07-29T05:17:35;93954.97;;;18.50;48.97
10261;BME280;5175;42.606;23.388;2022-07-29T05:20:05;93947.34;;;18.52;49.66
10261;BME280;5175;42.606;23.388;2022-07-29T05:22:32;93963.63;;;18.73;49.38
10261;BME280;5175;42.606;23.388;2022-07-29T05:25:00;93963.97;;;19.01;51.48
10261;BME280;5175;42.606;23.388;2022-07-29T05:27:27;93961.94;;;18.98;51.12
10261;BME280;5175;42.606;23.388;2022-07-29T05:29:54;93959.94;;;19.45;54.84
10261;BME280;5175;42.606;23.388;2022-07-29T05:32:21;93969.72;;;19.78;57.64
10261;BME280;5175;42.606;23.388;2022-07-29T05:34:48;93963.66;;;19.81;58.92
10261;BME280;5175;42.606;23.388;2022-07-29T05:37:16;93966.63;;;20.21;61.11
10261;BME280;5175;42.606;23.388;2022-07-29T05:39:43;93968.88;;;20.40;62.60
10261;BME280;5175;42.606;23.388;2022-07-29T05:42:10;93966.44;;;20.59;62.58
10261;BME280;5175;42.606;23.388;2022-07-29T05:44:37;93969.97;;;20.84;66.67
10261;BME280;5175;42.606;23.388;2022-07-29T05:47:04;93966.59;;;20.87;65.65
10261;BME280;5175;42.606;23.388;2022-07-29T05:49:31;93966.97;;;21.09;69.42
10261;BME280;5175;42.606;23.388;2022-07-29T05:52:01;93976.47;;;21.28;72.27
10261;BME280;5175;42.606;23.388;2022-07-29T05:54:29;93977.81;;;21.21;68.72
10261;BME280;5175;42.606;23.388;2022-07-29T05:56:56;93977.59;;;21.14;69.38
10261;BME280;5175;42.606;23.388;2022-07-29T05:59:23;93983.03;;;21.14;68.66
10261;BME280;5175;42.606;23.388;2022-07-29T06:01:49;93980.72;;;21.65;75.61
10261;BME280;5175;42.606;23.388;2022-07-29T06:04:16;93989.97;;;22.00;78.40
10261;BME280;5175;42.606;23.388;2022-07-29T06:06:43;93986.63;;;22.34;81.63
10261;BME280;5175;42.606;23.388;2022-07-29T06:09:10;93989.16;;;22.55;83.13
10261;BME280;5175;42.606;23.388;2022-07-29T06:11:38;93994.31;;;22.72;84.21
10261;BME280;5175;42.606;23.388;2022-07-29T06:14:04;93997.78;;;23.00;85.10
10261;BME280;5175;42.606;23.388;2022-07-29T06:16:31;93995.75;;;23.13;85.39
10261;BME280;5175;42.606;23.388;2022-07-29T06:18:58;94001.63;;;23.31;86.07
10261;BME280;5175;42.606;23.388;2022-07-29T06:21:25;94004.34;;;23.62;87.46
10261;BME280;5175;42.606;23.388;2022-07-29T06:23:51;94000.97;;;23.68;88.23
10261;BME280;5175;42.606;23.388;2022-07-29T06:26:18;94011.84;;;23.84;87.79
10261;BME280;5175;42.606;23.388;2022-07-29T06:28:46;94000.06;;;23.96;87.57
10261;BME280;5175;42.606;23.388;2022-07-29T06:31:13;94002.22;;;24.06;87.55
10261;BME280;5175;42.606;23.388;2022-07-29T06:33:40;94010.91;;;24.11;87.54
10261;BME280;5175;42.606;23.388;2022-07-29T06:36:07;94007.66;;;24.06;87.27
10261;BME280;5175;42.606;23.388;2022-07-29T06:38:34;94002.31;;;23.94;87.13
10261;BME280;5175;42.606;23.388;2022-07-29T06:41:01;93998.38;;;23.91;87.18
10261;BME280;5175;42.606;23.388;2022-07-29T06:43:30;93995.22;;;23.89;87.00
10261;BME280;5175;42.606;23.388;2022-07-29T06:46:02;94003.47;;;24.08;87.31
10261;BME280;5175;42.606;23.388;2022-07-29T06:48:30;93993.78;;;24.30;87.21
10261;BME280;5175;42.606;23.388;2022-07-29T06:50:57;93990.25;;;24.10;86.61
10261;BME280;5175;42.606;23.388;2022-07-29T06:53:24;94004.06;;;24.37;86.46
10261;BME280;5175;42.606;23.388;2022-07-29T06:55:51;94008.13;;;24.46;86.98
10261;BME280;5175;42.606;23.388;2022-07-29T06:58:18;94001.81;;;24.42;86.64
10261;BME280;5175;42.606;23.388;2022-07-29T07:00:46;93998.81;;;24.47;86.65
10261;BME280;5175;42.606;23.388;2022-07-29T07:03:14;93989.88;;;24.50;86.83
10261;BME280;5175;42.606;23.388;2022-07-29T07:05:41;93999.28;;;24.53;86.40
10261;BME280;5175;42.606;23.388;2022-07-29T07:08:08;93997.00;;;24.55;86.88
10261;BME280;5175;42.606;23.388;2022-07-29T07:10:35;93988.72;;;24.70;86.67
10261;BME280;5175;42.606;23.388;2022-07-29T07:13:02;93992.16;;;24.86;86.12
10261;BME280;5175;42.606;23.388;2022-07-29T07:15:29;94000.66;;;24.81;85.35
10261;BME280;5175;42.606;23.388;2022-07-29T07:17:56;94000.31;;;24.83;85.55
10261;BME280;5175;42.606;23.388;2022-07-29T07:20:24;93997.16;;;25.04;85.52
10261;BME280;5175;42.606;23.388;2022-07-29T07:22:51;93999.53;;;25.05;84.82
10261;BME280;5175;42.606;23.388;2022-07-29T07:25:18;93993.84;;;25.14;86.15
10261;BME280;5175;42.606;23.388;2022-07-29T07:27:45;93993.38;;;25.12;85.37
10261;BME280;5175;42.606;23.388;2022-07-29T07:30:13;93987.31;;;25.44;85.18
10261;BME280;5175;42.606;23.388;2022-07-29T07:32:39;93985.63;;;25.59;82.92
10261;BME280;5175;42.606;23.388;2022-07-29T07:35:08;93995.22;;;25.76;84.58
10261;BME280;5175;42.606;23.388;2022-07-29T07:37:37;94002.53;;;25.94;82.24
10261;BME280;5175;42.606;23.388;2022-07-29T07:40:06;93998.53;;;25.62;79.36
10261;BME280;5175;42.606;23.388;2022-07-29T07:42:33;93988.53;;;25.73;83.13
10261;BME280;5175;42.606;23.388;2022-07-29T07:45:00;93973.34;;;25.76;83.21
10261;BME280;5175;42.606;23.388;2022-07-29T07:47:27;93997.03;;;25.65;79.29
10261;BME280;5175;42.606;23.388;2022-07-29T07:49:54;93994.94;;;25.81;78.49
10261;BME280;5175;42.606;23.388;2022-07-29T07:52:21;93992.47;;;25.76;79.39
10261;BME280;5175;42.606;23.388;2022-07-29T07:54:49;93985.63;;;25.85;77.89
10261;BME280;5175;42.606;23.388;2022-07-29T07:57:17;93992.44;;;25.98;77.13
10261;BME280;5175;42.606;23.388;2022-07-29T07:59:43;93990.94;;;26.04;69.00
10261;BME280;5175;42.606;23.388;2022-07-29T08:02:10;93995.44;;;26.16;68.18
10261;BME280;5175;42.606;23.388;2022-07-29T08:04:37;93996.59;;;26.45;73.73
10261;BME280;5175;42.606;23.388;2022-07-29T08:07:06;93992.88;;;26.63;73.65
10261;BME280;5175;42.606;23.388;2022-07-29T08:09:35;93997.94;;;26.91;65.99
10261;BME280;5175;42.606;23.388;2022-07-29T08:12:03;94002.84;;;27.15;67.88
10261;BME280;5175;42.606;23.388;2022-07-29T08:14:31;93994.44;;;27.38;67.83
10261;BME280;5175;42.606;23.388;2022-07-29T08:16:59;93995.22;;;27.39;61.43
10261;BME280;5175;42.606;23.388;2022-07-29T08:19:26;94004.09;;;27.25;63.23
10261;BME280;5175;42.606;23.388;2022-07-29T08:21:53;93996.06;;;27.02;62.30
10261;BME280;5175;42.606;23.388;2022-07-29T08:24:20;93989.38;;;26.63;64.01
10261;BME280;5175;42.606;23.388;2022-07-29T08:27:05;93981.59;;;26.68;64.19
10261;BME280;5175;42.606;23.388;2022-07-29T08:29:32;93987.63;;;26.81;64.99
10261;BME280;5175;42.606;23.388;2022-07-29T08:31:59;93992.19;;;27.03;61.74
10261;BME280;5175;42.606;23.388;2022-07-29T08:34:26;93991.47;;;27.54;58.35
10261;BME280;5175;42.606;23.388;2022-07-29T08:36:53;93989.91;;;27.53;55.84
10261;BME280;5175;42.606;23.388;2022-07-29T08:39:20;93989.69;;;27.79;59.46
10261;BME280;5175;42.606;23.388;2022-07-29T08:41:47;93991.31;;;27.87;56.50
10261;BME280;5175;42.606;23.388;2022-07-29T08:44:16;93992.16;;;27.91;55.25
10261;BME280;5175;42.606;23.388;2022-07-29T08:46:43;93984.00;;;28.02;55.12
10261;BME280;5175;42.606;23.388;2022-07-29T08:49:10;93990.69;;;28.04;53.68
10261;BME280;5175;42.606;23.388;2022-07-29T08:51:39;93980.56;;;28.22;56.04
10261;BME280;5175;42.606;23.388;2022-07-29T08:54:07;93987.31;;;28.35;56.36
10261;BME280;5175;42.606;23.388;2022-07-29T08:56:35;93987.03;;;28.58;55.38
10261;BME280;5175;42.606;23.388;2022-07-29T08:59:03;93986.22;;;28.54;55.49
10261;BME280;5175;42.606;23.388;2022-07-29T09:01:33;93987.75;;;28.44;55.65
10261;BME280;5175;42.606;23.388;2022-07-29T09:04:03;93982.97;;;28.27;56.95
10261;BME280;5175;42.606;23.388;2022-07-29T09:06:31;93977.56;;;28.48;56.15
10261;BME280;5175;42.606;23.388;2022-07-29T09:08:59;93961.28;;;28.05;54.97
10261;BME280;5175;42.606;23.388;2022-07-29T09:11:26;93976.28;;;28.25;56.53
10261;BME280;5175;42.606;23.388;2022-07-29T09:13:53;93992.06;;;28.49;53.85
10261;BME280;5175;42.606;23.388;2022-07-29T09:16:20;93978.50;;;28.88;53.94
10261;BME280;5175;42.606;23.388;2022-07-29T09:18:48;93980.41;;;28.63;55.48
10261;BME280;5175;42.606;23.388;2022-07-29T09:21:17;93978.28;;;28.31;56.17
10261;BME280;5175;42.606;23.388;2022-07-29T09:24:04;93981.56;;;28.69;53.19
10261;BME280;5175;42.606;23.388;2022-07-29T09:26:33;93974.97;;;28.94;54.45
10261;BME280;5175;42.606;23.388;2022-07-29T09:29:07;93984.13;;;29.37;51.08
10261;BME280;5175;42.606;23.388;2022-07-29T09:31:36;93985.28;;;29.71;52.87
10261;BME280;5175;42.606;23.388;2022-07-29T09:34:05;93976.25;;;29.60;53.53
10261;BME280;5175;42.606;23.388;2022-07-29T09:36:38;93979.81;;;29.89;53.93
10261;BME280;5175;42.606;23.388;2022-07-29T09:39:06;93983.72;;;29.46;52.31
10261;BME280;5175;42.606;23.388;2022-07-29T09:41:44;93976.25;;;29.53;51.37
10261;BME280;5175;42.606;23.388;2022-07-29T09:44:11;93979.41;;;29.62;54.01
10261;BME280;5175;42.606;23.388;2022-07-29T09:46:40;93983.72;;;29.35;52.11
10261;BME280;5175;42.606;23.388;2022-07-29T09:49:11;93977.44;;;30.02;51.77
10261;BME280;5175;42.606;23.388;2022-07-29T09:51:40;93958.88;;;30.23;52.69
10261;BME280;5175;42.606;23.388;2022-07-29T09:54:22;93975.75;;;30.50;48.81
10261;BME280;5175;42.606;23.388;2022-07-29T09:56:49;93969.88;;;30.23;49.69
10261;BME280;5175;42.606;23.388;2022-07-29T09:59:16;93957.66;;;30.46;49.36
10261;BME280;5175;42.606;23.388;2022-07-29T10:01:43;93968.56;;;30.67;48.55
10261;BME280;5175;42.606;23.388;2022-07-29T10:04:11;93964.56;;;30.82;46.92
10261;BME280;5175;42.606;23.388;2022-07-29T10:06:55;93946.66;;;30.46;47.22
10261;BME280;5175;42.606;23.388;2022-07-29T10:09:23;93960.63;;;30.86;47.67
10261;BME280;5175;42.606;23.388;2022-07-29T10:12:03;93958.69;;;30.76;47.22
10261;BME280;5175;42.606;23.388;2022-07-29T10:14:30;93960.50;;;31.08;45.98
10261;BME280;5175;42.606;23.388;2022-07-29T10:16:59;93953.69;;;31.26;44.62
10261;BME280;5175;42.606;23.388;2022-07-29T10:19:28;93951.19;;;30.80;46.23
10261;BME280;5175;42.606;23.388;2022-07-29T10:21:56;93951.41;;;30.24;47.89
10261;BME280;5175;42.606;23.388;2022-07-29T10:24:24;93946.31;;;30.22;47.26
10261;BME280;5175;42.606;23.388;2022-07-29T10:26:53;93953.56;;;30.75;44.86
10261;BME280;5175;42.606;23.388;2022-07-29T10:29:20;93941.38;;;30.76;48.47
10261;BME280;5175;42.606;23.388;2022-07-29T10:31:52;93951.94;;;30.91;44.91
10261;BME280;5175;42.606;23.388;2022-07-29T10:34:36;93947.63;;;30.83;43.06
10261;BME280;5175;42.606;23.388;2022-07-29T10:37:18;93940.63;;;31.34;45.88
10261;BME280;5175;42.606;23.388;2022-07-29T10:39:55;93945.69;;;31.42;43.12
10261;BME280;5175;42.606;23.388;2022-07-29T10:42:28;93940.97;;;31.43;43.08
10261;BME280;5175;42.606;23.388;2022-07-29T10:44:56;93934.91;;;31.62;43.91
10261;BME280;5175;42.606;23.388;2022-07-29T10:47:24;93928.28;;;31.56;42.46
10261;BME280;5175;42.606;23.388;2022-07-29T10:50:00;93934.88;;;31.14;42.58
10261;BME280;5175;42.606;23.388;2022-07-29T10:52:55;93933.84;;;30.90;41.10
10261;BME280;5175;42.606;23.388;2022-07-29T10:55:33;93916.13;;;29.94;44.85
10261;BME280;5175;42.606;23.388;2022-07-29T10:58:12;93917.34;;;30.80;43.99
10261;BME280;5175;42.606;23.388;2022-07-29T11:00:40;93914.13;;;30.95;43.73
10261;BME280;5175;42.606;23.388;2022-07-29T11:03:06;93912.75;;;31.21;46.20
10261;BME280;5175;42.606;23.388;2022-07-29T11:05:53;93920.88;;;31.39;42.15
10261;BME280;5175;42.606;23.388;2022-07-29T11:08:23;93920.28;;;31.65;42.31
10261;BME280;5175;42.606;23.388;2022-07-29T11:14:06;93913.31;;;30.98;44.08
10261;BME280;5175;42.606;23.388;2022-07-29T11:16:58;93916.31;;;31.70;41.89
10261;BME280;5175;42.606;23.388;2022-07-29T11:19:26;93913.63;;;31.59;41.62
10261;BME280;5175;42.606;23.388;2022-07-29T11:21:54;93916.03;;;31.57;41.98
10261;BME280;5175;42.606;23.388;2022-07-29T11:24:22;93907.91;;;31.80;42.23
10261;BME280;5175;42.606;23.388;2022-07-29T11:27:07;93901.09;;;32.29;41.24
10261;BME280;5175;42.606;23.388;2022-07-29T11:29:35;93909.19;;;31.72;39.20
10261;BME280;5175;42.606;23.388;2022-07-29T11:32:09;93903.41;;;32.00;39.51
10261;BME280;5175;42.606;23.388;2022-07-29T11:34:37;93901.41;;;32.04;39.39
10261;BME280;5175;42.606;23.388;2022-07-29T11:37:20;93905.97;;;31.77;41.76
10261;BME280;5175;42.606;23.388;2022-07-29T11:40:13;93893.56;;;31.99;41.87
10261;BME280;5175;42.606;23.388;2022-07-29T11:42:47;93901.50;;;31.90;39.07
10261;BME280;5175;42.606;23.388;2022-07-29T11:45:16;93897.22;;;31.86;39.86
10261;BME280;5175;42.606;23.388;2022-07-29T11:47:49;93904.69;;;31.89;38.24
10261;BME280;5175;42.606;23.388;2022-07-29T11:50:18;93899.03;;;32.03;39.43
10261;BME280;5175;42.606;23.388;2022-07-29T11:52:54;93891.31;;;32.21;38.59
10261;BME280;5175;42.606;23.388;2022-07-29T11:55:23;93897.44;;;32.69;37.99
10261;BME280;5175;42.606;23.388;2022-07-29T11:57:51;93888.16;;;32.56;39.42
10261;BME280;5175;42.606;23.388;2022-07-29T12:00:27;93895.28;;;32.54;38.76
10261;BME280;5175;42.606;23.388;2022-07-29T12:02:55;93891.97;;;32.66;37.67
10261;BME280;5175;42.606;23.388;2022-07-29T12:05:39;93899.94;;;32.27;37.15
10261;BME280;5175;42.606;23.388;2022-07-29T12:08:13;93895.13;;;32.00;38.83
10261;BME280;5175;42.606;23.388;2022-07-29T12:10:42;93883.84;;;31.84;37.88
10261;BME280;5175;42.606;23.388;2022-07-29T12:13:10;93893.84;;;32.42;40.37
10261;BME280;5175;42.606;23.388;2022-07-29T12:15:37;93875.91;;;32.57;38.12
10261;BME280;5175;42.606;23.388;2022-07-29T12:18:12;93895.22;;;32.88;37.97
10261;BME280;5175;42.606;23.388;2022-07-29T12:20:40;93897.63;;;32.22;36.18
10261;BME280;5175;42.606;23.388;2022-07-29T12:23:07;93894.19;;;32.14;37.97
10261;BME280;5175;42.606;23.388;2022-07-29T12:25:40;93892.91;;;32.22;38.19
10261;BME280;5175;42.606;23.388;2022-07-29T12:28:08;93894.88;;;32.22;38.43
10261;BME280;5175;42.606;23.388;2022-07-29T12:30:37;93885.31;;;32.30;38.64
10261;BME280;5175;42.606;23.388;2022-07-29T12:33:16;93888.44;;;32.65;39.10
10261;BME280;5175;42.606;23.388;2022-07-29T12:35:45;93889.44;;;32.78;37.03
10261;BME280;5175;42.606;23.388;2022-07-29T12:38:13;93884.97;;;33.15;35.57
10261;BME280;5175;42.606;23.388;2022-07-29T12:40:42;93878.69;;;33.11;37.18
10261;BME280;5175;42.606;23.388;2022-07-29T12:43:11;93877.66;;;33.28;39.24
10261;BME280;5175;42.606;23.388;2022-07-29T12:45:39;93880.78;;;33.30;36.16
10261;BME280;5175;42.606;23.388;2022-07-29T12:48:09;93866.81;;;33.37;37.05
10261;BME280;5175;42.606;23.388;2022-07-29T12:50:36;93880.34;;;33.31;36.78
10261;BME280;5175;42.606;23.388;2022-07-29T12:53:11;93880.16;;;33.19;36.26
10261;BME280;5175;42.606;23.388;2022-07-29T12:55:44;93877.22;;;33.03;35.59
10261;BME280;5175;42.606;23.388;2022-07-29T12:58:24;93858.00;;;32.69;37.15
10261;BME280;5175;42.606;23.388;2022-07-29T13:00:59;93867.00;;;32.73;34.64
10261;BME280;5175;42.606;23.388;2022-07-29T13:03:26;93861.44;;;32.76;35.62
10261;BME280;5175;42.606;23.388;2022-07-29T13:05:53;93869.59;;;32.57;34.92
10261;BME280;5175;42.606;23.388;2022-07-29T13:08:20;93863.94;;;32.34;38.05
10261;BME280;5175;42.606;23.388;2022-07-29T13:10:48;93860.25;;;32.13;37.71
10261;BME280;5175;42.606;23.388;2022-07-29T13:13:15;93856.03;;;31.65;37.35
10261;BME280;5175;42.606;23.388;2022-07-29T13:15:43;93855.84;;;31.41;39.08
10261;BME280;5175;42.606;23.388;2022-07-29T13:18:28;93855.53;;;31.32;38.91
10261;BME280;5175;42.606;23.388;2022-07-29T13:20:54;93853.56;;;31.33;37.83